Time;durP1;ratioP1;P1;durP2;ratioP2;P2;SDS_P1;SDS_P2;PMS_P1;PMS_P2;Temp;Humidity;BMP_temperature;BMP_pressure;BME280_temperature;BME280_humidity;BME280_pressure;Samples;Min_cycle;Max_cycle;Signal;HPM_P1;HPM_P2
2023/01/21 16:22:37;;;;;;;21.60;13.15;;;;;;;0.90;68.80;100313.22;3706252;23;20716;-89
2023/01/21 16:25:13;;;;;;;24.70;14.43;;;;;;;0.87;68.66;100314.13;4992952;28;20304;-89
2023/01/21 16:27:48;;;;;;;24.95;12.70;;;;;;;0.86;68.80;100317.59;4995560;28;20191;-89
2023/01/21 16:30:34;;;;;;;19.38;12.00;;;;;;;0.83;69.23;100316.75;4998562;28;20548;-89
2023/01/21 16:33:30;;;;;;;27.63;12.93;;;;;;;0.78;69.00;100323.72;4999756;28;20180;-87
2023/01/21 16:36:13;;;;;;;22.17;12.75;;;;;;;0.73;69.17;100315.16;4999380;28;20191;-90
2023/01/21 16:39:05;;;;;;;22.02;11.00;;;;;;;0.73;69.20;100325.50;5002749;28;20975;-89
2023/01/21 16:41:38;;;;;;;20.67;14.88;;;;;;;0.68;69.47;100328.16;4999109;28;20480;-89
2023/01/21 16:44:24;;;;;;;;;;;;;;;;;;;;;
2023/01/21 16:47:19;;;;;;;16.20;9.98;;;;;;;0.63;69.70;100332.53;4998135;28;20185;-88
2023/01/21 16:49:58;;;;;;;19.00;11.68;;;;;;;0.65;69.73;100341.97;5000029;28;20215;-87
2023/01/21 16:52:52;;;;;;;;;;;;;;;;;;;;;
2023/01/21 16:55:29;;;;;;;16.52;9.18;;;;;;;0.60;70.02;100332.56;4986555;28;20435;-87
2023/01/21 16:58:35;;;;;;;12.60;7.38;;;;;;;0.62;69.77;100336.84;4986201;28;20803;-88
2023/01/21 17:01:14;;;;;;;24.98;13.32;;;;;;;0.65;69.71;100329.03;4978526;28;20179;-89
2023/01/21 17:04:02;;;;;;;15.70;9.50;;;;;;;0.68;69.92;100329.91;4980185;28;20202;-88
2023/01/21 17:06:55;;;;;;;21.67;12.48;;;;;;;0.68;69.63;100335.06;4993647;28;20179;-90
2023/01/21 17:09:59;;;;;;;21.20;11.32;;;;;;;0.65;69.87;100338.53;5000085;28;20180;-89
2023/01/21 17:12:38;;;;;;;16.05;11.65;;;;;;;0.63;69.96;100332.53;4998588;28;20183;-88
2023/01/21 17:15:17;;;;;;;21.45;12.63;;;;;;;0.57;69.92;100330.00;4999452;28;20190;-89
2023/01/21 17:17:53;;;;;;;17.05;11.48;;;;;;;0.59;69.98;100338.59;4994408;28;20290;-89
2023/01/21 17:20:34;;;;;;;15.55;9.88;;;;;;;0.58;70.18;100339.47;4980732;28;20199;-90
2023/01/21 17:27:36;;;;;;;15.52;10.73;;;;;;;0.59;70.25;100347.19;4963568;28;20243;-80
2023/01/21 17:30:24;;;;;;;17.75;11.80;;;;;;;0.63;70.02;100346.28;4973989;28;20203;-80
2023/01/21 17:33:00;;;;;;;14.18;10.30;;;;;;;0.60;70.20;100359.25;4957036;28;20650;-80
2023/01/21 17:35:28;;;;;;;23.60;16.05;;;;;;;0.59;70.30;100352.34;4975595;28;20436;-80
2023/01/21 17:38:06;;;;;;;20.20;12.57;;;;;;;0.55;70.35;100358.44;4976648;28;20220;-81
2023/01/21 17:40:39;;;;;;;28.73;11.95;;;;;;;0.56;70.46;100349.81;4963047;28;20227;-80
2023/01/21 17:43:20;;;;;;;19.08;12.38;;;;;;;0.54;70.43;100355.88;4973310;28;20196;-80
2023/01/21 17:45:48;;;;;;;24.35;11.57;;;;;;;0.54;70.19;100356.75;4953871;28;20307;-80
2023/01/21 17:48:27;;;;;;;13.43;9.48;;;;;;;0.51;70.26;100361.06;4941973;28;20547;-80
2023/01/21 17:51:01;;;;;;;18.42;11.25;;;;;;;0.52;70.39;100368.81;4943767;28;20209;-80
2023/01/21 17:53:27;;;;;;;16.70;9.80;;;;;;;0.56;70.49;100365.31;4946319;29;20451;-80
2023/01/21 17:55:58;;;;;;;21.02;11.52;;;;;;;0.59;70.18;100369.59;4944063;29;20268;-80
2023/01/21 17:58:30;;;;;;;19.00;11.00;;;;;;;0.61;70.37;100375.63;4943484;29;20178;-80
2023/01/21 18:00:58;;;;;;;17.52;12.02;;;;;;;0.61;70.27;100363.53;4935744;28;20779;-80
2023/01/21 18:03:23;;;;;;;20.23;14.05;;;;;;;0.59;70.37;100378.22;4958412;28;20194;-80
2023/01/21 18:05:49;;;;;;;19.70;13.20;;;;;;;0.57;70.35;100372.22;4963586;28;20196;-80
2023/01/21 18:08:16;;;;;;;17.87;11.60;;;;;;;0.58;70.30;100381.69;4964486;28;20180;-80
2023/01/21 18:10:43;;;;;;;18.63;11.30;;;;;;;0.60;70.28;100374.78;4963314;28;20291;-81
2023/01/21 18:13:11;;;;;;;17.42;11.32;;;;;;;0.62;70.39;100372.16;4946986;28;20200;-80
2023/01/21 18:15:36;;;;;;;8.27;7.28;;;;;;;0.64;70.25;100375.59;4964493;28;20200;-80
2023/01/21 18:18:02;;;;;;;17.17;11.57;;;;;;;0.59;70.40;100373.03;4964097;28;20220;-80
2023/01/21 18:20:29;;;;;;;15.00;10.63;;;;;;;0.60;70.30;100379.94;4966270;28;20184;-80
2023/01/21 18:22:56;;;;;;;18.55;12.40;;;;;;;0.58;70.33;100378.25;4965091;28;20464;-81
2023/01/21 18:25:24;;;;;;;17.13;10.90;;;;;;;0.56;69.93;100380.84;4965320;28;20653;-81
2023/01/21 18:27:56;;;;;;;17.85;11.43;;;;;;;0.54;70.35;100380.00;4968039;28;20197;-81
2023/01/21 18:30:26;;;;;;;14.55;9.45;;;;;;;0.56;70.36;100377.41;4966280;28;20205;-81
2023/01/21 18:32:53;;;;;;;26.73;11.15;;;;;;;0.56;70.15;100385.16;4982637;28;20199;-82
2023/01/21 18:35:22;;;;;;;20.20;14.77;;;;;;;0.60;70.33;100384.25;4986619;28;20420;-81
2023/01/21 18:37:48;;;;;;;15.50;11.30;;;;;;;0.60;70.62;100384.25;4971284;28;20251;-81
2023/01/21 18:40:17;;;;;;;18.65;11.00;;;;;;;0.58;70.44;100389.44;4974111;28;20402;-82
2023/01/21 18:42:44;;;;;;;12.85;9.20;;;;;;;0.56;70.28;100382.56;4980108;28;20287;-82
2023/01/21 18:45:18;;;;;;;17.33;10.65;;;;;;;0.54;70.43;100381.72;4966146;28;20414;-81
2023/01/21 18:47:46;;;;;;;22.42;13.32;;;;;;;0.54;70.42;100385.19;4964249;28;20184;-81
2023/01/21 18:50:18;;;;;;;14.65;10.18;;;;;;;0.54;70.55;100392.94;4955738;28;20201;-82
2023/01/21 18:52:43;;;;;;;19.27;9.85;;;;;;;0.55;70.56;100391.22;4963979;28;20210;-80
2023/01/21 18:55:10;;;;;;;18.00;10.90;;;;;;;0.57;70.69;100399.81;4966294;28;20184;-81
2023/01/21 18:57:35;;;;;;;16.25;10.73;;;;;;;0.56;70.41;100393.75;4964413;28;20197;-81
2023/01/21 19:00:03;;;;;;;11.87;8.70;;;;;;;0.56;70.74;100400.66;4963225;28;20196;-80
2023/01/21 19:02:29;;;;;;;19.67;10.77;;;;;;;0.54;70.69;100403.28;4965810;28;20216;-81
2023/01/21 19:04:54;;;;;;;16.33;11.60;;;;;;;0.58;70.55;100392.03;4961883;28;20546;-81
2023/01/21 19:07:22;;;;;;;17.00;9.80;;;;;;;0.59;70.74;100393.72;4967031;28;20649;-80
2023/01/21 19:09:49;;;;;;;15.05;10.32;;;;;;;0.60;70.78;100399.78;4965931;28;20460;-81
2023/01/21 19:12:23;;;;;;;19.52;10.40;;;;;;;0.59;70.62;100409.22;4950830;28;20840;-80
2023/01/21 19:14:49;;;;;;;18.60;11.35;;;;;;;0.58;70.81;100402.38;4955635;28;20259;-81
2023/01/21 19:17:24;;;;;;;20.40;11.33;;;;;;;0.56;71.01;100398.94;4966920;28;20327;-81
2023/01/21 19:19:51;;;;;;;16.48;10.18;;;;;;;0.56;71.01;100392.91;4979359;28;20729;-81
2023/01/21 19:22:16;;;;;;;18.52;10.18;;;;;;;0.56;71.10;100406.69;4966913;28;20220;-80
2023/01/21 19:24:42;;;;;;;14.33;9.57;;;;;;;0.57;71.06;100397.22;4967860;28;20189;-81
2023/01/21 19:27:28;;;;;;;19.50;11.20;;;;;;;0.58;71.09;100402.38;4948611;28;20217;-80
2023/01/21 19:29:53;;;;;;;18.63;10.70;;;;;;;0.57;71.08;100398.06;4966869;28;20670;-81
2023/01/21 19:32:19;;;;;;;13.43;10.30;;;;;;;0.59;71.00;100401.47;4957727;28;20199;-81
2023/01/21 19:34:44;;;;;;;22.40;12.53;;;;;;;0.58;71.02;100397.19;4969556;28;20433;-80
2023/01/21 19:37:14;;;;;;;17.93;11.10;;;;;;;0.59;71.11;100400.63;4966834;28;20678;-82
2023/01/21 19:39:40;;;;;;;15.35;10.13;;;;;;;0.59;71.28;100400.63;4966818;28;20185;-82
2023/01/21 19:42:05;;;;;;;16.57;9.93;;;;;;;0.61;70.94;100404.91;4966177;28;20363;-81
2023/01/21 19:44:38;;;;;;;17.90;10.27;;;;;;;0.64;70.92;100399.72;4965134;28;20232;-82
2023/01/21 19:47:08;;;;;;;18.60;9.57;;;;;;;0.64;70.92;100399.72;4963990;28;20213;-81
2023/01/21 19:49:34;;;;;;;11.98;8.30;;;;;;;0.66;70.81;100397.97;4949177;28;20705;-79
2023/01/21 19:51:59;;;;;;;9.10;8.20;;;;;;;0.62;71.02;100400.59;4965095;28;20208;-80
2023/01/21 19:54:25;;;;;;;18.60;10.77;;;;;;;0.65;71.14;100395.41;4948457;28;20186;-78
2023/01/21 19:56:50;;;;;;;13.97;10.50;;;;;;;0.63;70.74;100403.19;4969308;28;20657;-80
2023/01/21 19:59:16;;;;;;;17.43;9.47;;;;;;;0.65;70.68;100409.19;4965347;28;20209;-80
2023/01/21 20:01:43;;;;;;;17.40;11.07;;;;;;;0.65;70.84;100411.78;4965357;28;20549;-80
2023/01/21 20:04:08;;;;;;;17.77;11.10;;;;;;;0.63;70.87;100398.00;4966095;28;20882;-79
2023/01/21 20:06:43;;;;;;;16.60;10.57;;;;;;;0.63;70.74;100400.59;4950121;29;20210;-79
2023/01/21 20:09:13;;;;;;;19.65;10.45;;;;;;;0.62;70.70;100396.31;4965963;28;20212;-78
2023/01/21 20:11:39;;;;;;;23.73;11.75;;;;;;;0.64;70.68;100402.28;4968694;28;20679;-80
2023/01/21 20:14:05;;;;;;;18.75;12.68;;;;;;;0.64;70.47;100394.53;4971473;28;20318;-80
2023/01/21 20:16:32;;;;;;;12.23;10.80;;;;;;;0.63;70.62;100403.19;4974505;28;20220;-80
2023/01/21 20:19:00;;;;;;;15.73;9.15;;;;;;;0.64;70.61;100415.22;4972448;28;20291;-81
2023/01/21 20:21:27;;;;;;;15.95;7.80;;;;;;;0.62;70.59;100414.41;4971170;28;20491;-80
2023/01/21 20:23:53;;;;;;;12.65;8.77;;;;;;;0.64;70.66;100414.38;4977211;28;20201;-80
2023/01/21 20:26:25;;;;;;;16.80;7.93;;;;;;;0.65;70.57;100416.94;4974017;28;20213;-81
2023/01/21 20:28:53;;;;;;;18.10;11.48;;;;;;;0.64;70.51;100410.03;4956993;28;20190;-80
2023/01/21 20:31:19;;;;;;;16.55;8.40;;;;;;;0.66;70.62;100397.97;4956752;28;20208;-79
2023/01/21 20:33:45;;;;;;;14.88;10.27;;;;;;;0.66;70.37;100400.56;4971712;28;20794;-80
2023/01/21 20:36:19;;;;;;;11.83;8.70;;;;;;;0.68;70.39;100404.88;4966708;28;20271;-80
2023/01/21 20:38:45;;;;;;;14.07;8.63;;;;;;;0.65;70.42;100409.19;4965423;28;20767;-81
2023/01/21 20:41:12;;;;;;;18.17;8.87;;;;;;;0.69;70.50;100406.56;4967368;28;20212;-79
2023/01/21 20:43:37;;;;;;;11.90;8.43;;;;;;;0.70;70.35;100419.47;4953042;28;20197;-81
2023/01/21 20:46:09;;;;;;;12.83;8.13;;;;;;;0.69;70.37;100402.25;4971227;28;20214;-82
2023/01/21 20:48:45;;;;;;;14.73;9.20;;;;;;;0.72;70.35;100401.38;4952823;28;20289;-82
2023/01/21 20:51:11;;;;;;;16.48;9.88;;;;;;;0.70;70.41;100403.94;4985349;28;20211;-81
2023/01/21 20:53:38;;;;;;;14.52;10.40;;;;;;;0.69;70.57;100401.41;4969523;28;20206;-81
2023/01/21 20:56:18;;;;;;;13.45;8.18;;;;;;;0.66;70.47;100400.56;4969127;28;20190;-82
2023/01/21 20:58:46;;;;;;;21.95;11.80;;;;;;;0.66;70.49;100407.47;4971780;28;20184;-82
2023/01/21 21:01:16;;;;;;;13.63;9.00;;;;;;;0.68;70.69;100402.28;4951183;28;20425;-81
2023/01/21 21:03:42;;;;;;;13.38;9.90;;;;;;;0.68;70.49;100402.28;4966965;28;20174;-81
2023/01/21 21:06:11;;;;;;;18.23;10.07;;;;;;;0.66;70.61;100413.47;4967864;28;20197;-81
2023/01/21 21:08:37;;;;;;;13.80;8.65;;;;;;;0.69;70.58;100407.41;4952721;28;20436;-82
2023/01/21 21:11:02;;;;;;;13.97;9.20;;;;;;;0.67;70.43;100406.56;4967651;28;20204;-80
2023/01/21 21:13:28;;;;;;;15.47;10.27;;;;;;;0.65;70.61;100413.50;4967761;28;20241;-80
2023/01/21 21:15:54;;;;;;;18.80;12.00;;;;;;;0.65;70.51;100411.78;4954870;28;20439;-80
2023/01/21 21:18:20;;;;;;;22.23;11.10;;;;;;;0.60;71.06;100410.13;4969869;28;20456;-81
2023/01/21 21:20:51;;;;;;;18.98;10.27;;;;;;;0.61;70.99;100411.81;4927434;28;20221;-81
2023/01/21 21:23:16;;;;;;;19.42;10.75;;;;;;;0.59;71.00;100417.00;4963640;28;20181;-81
2023/01/21 21:25:46;;;;;;;18.93;10.20;;;;;;;0.58;71.00;100414.44;4966928;28;20527;-80
2023/01/21 21:28:14;;;;;;;18.60;10.00;;;;;;;0.58;71.15;100423.03;4966314;28;20186;-81
2023/01/21 21:30:40;;;;;;;11.63;6.35;;;;;;;0.59;71.06;100413.56;4949573;28;20213;-81
2023/01/21 21:33:08;;;;;;;19.00;10.70;;;;;;;0.57;71.53;100413.59;4966944;28;20216;-80
2023/01/21 21:35:36;;;;;;;15.48;8.95;;;;;;;0.58;71.34;100415.28;4950364;28;20342;-80
2023/01/21 21:38:10;;;;;;;12.43;8.52;;;;;;;0.55;71.32;100420.50;4969466;28;20178;-80
2023/01/21 21:40:36;;;;;;;17.60;10.50;;;;;;;0.56;71.27;100416.16;4969188;28;20213;-81
2023/01/21 21:48:41;;;;;;;18.27;9.57;;;;;;;0.58;71.49;100420.47;4965773;28;20557;-81
2023/01/21 21:51:22;;;;;;;15.25;10.32;;;;;;;0.58;71.50;100420.47;4970107;28;20204;-81
2023/01/21 21:53:48;;;;;;;21.02;10.18;;;;;;;0.61;71.44;100417.84;4967912;28;20196;-79
2023/01/21 21:56:19;;;;;;;15.05;10.30;;;;;;;0.58;71.55;100420.47;4962739;28;20185;-81
2023/01/21 21:58:46;;;;;;;19.45;10.25;;;;;;;0.61;71.29;100425.59;4963182;28;20180;-82
2023/01/21 22:01:29;;;;;;;14.00;8.15;;;;;;;0.63;71.51;100423.84;4955662;28;20199;-80
2023/01/21 22:04:04;;;;;;;18.70;10.88;;;;;;;0.62;71.70;100422.16;4963266;28;20942;-81
2023/01/21 22:06:31;;;;;;;18.10;11.17;;;;;;;0.63;71.72;100423.84;4968339;28;20337;-81
2023/01/21 22:08:59;;;;;;;17.50;9.45;;;;;;;0.64;71.70;100419.53;4968778;28;20173;-80
2023/01/21 22:11:27;;;;;;;16.98;10.35;;;;;;;0.65;71.54;100421.28;4963706;28;20720;-80
2023/01/21 22:13:53;;;;;;;15.32;8.40;;;;;;;0.64;71.39;100419.53;4962465;28;20648;-80
2023/01/21 22:16:22;;;;;;;16.50;9.68;;;;;;;0.65;71.71;100419.53;4963657;28;20197;-81
2023/01/21 22:18:48;;;;;;;12.30;8.10;;;;;;;0.63;71.77;100408.34;4963661;28;20658;-80
2023/01/21 22:21:16;;;;;;;15.60;10.80;;;;;;;0.61;71.65;100407.50;4965548;28;20232;-80
2023/01/21 22:23:42;;;;;;;13.13;9.02;;;;;;;0.63;71.70;100417.84;4962651;28;20181;-80
2023/01/21 22:26:11;;;;;;;14.53;7.40;;;;;;;0.63;71.75;100413.53;4973111;28;20632;-80
2023/01/21 22:28:38;;;;;;;13.55;8.60;;;;;;;0.66;71.72;100410.03;4973277;28;20696;-80
2023/01/21 22:31:10;;;;;;;13.38;8.80;;;;;;;0.65;71.85;100400.59;4951461;28;20208;-80
2023/01/21 22:33:36;;;;;;;14.77;7.40;;;;;;;0.66;71.78;100405.72;4976428;28;20202;-80
2023/01/21 22:36:23;;;;;;;13.50;7.57;;;;;;;0.66;72.04;100412.63;4964357;28;20284;-81
2023/01/21 22:38:49;;;;;;;16.25;8.52;;;;;;;0.70;71.67;100406.53;4974972;28;20620;-80
2023/01/21 22:41:17;;;;;;;10.60;6.90;;;;;;;0.73;71.69;100408.25;4978607;28;20237;-80
2023/01/21 22:43:46;;;;;;;10.00;7.50;;;;;;;0.76;71.63;100397.88;4973562;28;20186;-80
2023/01/21 22:46:15;;;;;;;12.98;7.55;;;;;;;0.76;71.61;100401.31;4972242;28;20196;-81
2023/01/21 22:48:41;;;;;;;11.05;7.43;;;;;;;0.77;71.44;100394.41;4963449;28;20267;-80
2023/01/21 22:51:10;;;;;;;15.00;8.25;;;;;;;0.78;71.55;100396.13;4970650;28;20212;-80
2023/01/21 22:53:36;;;;;;;10.48;6.32;;;;;;;0.76;71.52;100383.22;4973841;28;20198;-79
2023/01/21 22:56:03;;;;;;;10.43;7.03;;;;;;;0.76;71.45;100385.81;4963035;28;20543;-80
2023/01/21 22:58:30;;;;;;;12.45;6.63;;;;;;;0.76;71.38;100390.13;4978731;28;20181;-81
2023/01/21 23:00:56;;;;;;;11.43;7.55;;;;;;;0.77;71.49;100386.66;4970220;28;20185;-80
2023/01/21 23:03:23;;;;;;;9.60;7.43;;;;;;;0.78;71.38;100385.78;4966054;28;20599;-80
2023/01/21 23:05:48;;;;;;;14.63;8.18;;;;;;;0.75;71.56;100389.25;4964843;28;20217;-81
2023/01/21 23:08:15;;;;;;;16.03;9.40;;;;;;;0.75;71.55;100381.50;4966871;28;20217;-80
2023/01/21 23:10:41;;;;;;;14.10;8.35;;;;;;;0.76;71.43;100387.53;4965654;28;20225;-80
2023/01/21 23:13:08;;;;;;;11.17;7.77;;;;;;;0.79;71.59;100382.34;4948318;28;20182;-80
2023/01/21 23:15:33;;;;;;;10.07;7.90;;;;;;;0.78;71.61;100380.59;4962315;28;20185;-80
2023/01/21 23:17:59;;;;;;;12.77;8.17;;;;;;;0.77;71.50;100378.91;4963531;28;20215;-81
2023/01/21 23:20:27;;;;;;;14.73;8.73;;;;;;;0.77;71.85;100378.91;4969040;28;20641;-79
2023/01/21 23:22:57;;;;;;;15.95;8.20;;;;;;;0.78;71.60;100375.44;4962694;28;20229;-80
2023/01/21 23:25:22;;;;;;;14.57;8.20;;;;;;;0.81;71.68;100380.56;4964642;28;20233;-81
2023/01/21 23:27:48;;;;;;;11.30;8.90;;;;;;;0.80;71.49;100369.38;4965899;28;20205;-81
2023/01/21 23:30:14;;;;;;;11.70;7.10;;;;;;;0.79;71.79;100367.66;4962383;28;20680;-80
2023/01/21 23:32:39;;;;;;;12.07;8.33;;;;;;;0.78;71.68;100370.25;4965020;28;20202;-80
2023/01/21 23:35:05;;;;;;;11.50;8.27;;;;;;;0.72;71.66;100366.00;4964781;28;20282;-80
2023/01/21 23:37:30;;;;;;;10.90;7.50;;;;;;;0.71;71.66;100366.91;4961316;28;20197;-79
2023/01/21 23:39:56;;;;;;;12.90;8.77;;;;;;;0.71;71.60;100363.47;4963118;28;20662;-80
2023/01/21 23:42:22;;;;;;;15.30;8.00;;;;;;;0.71;71.75;100368.63;4964394;28;20280;-82
2023/01/21 23:44:50;;;;;;;13.45;7.13;;;;;;;0.66;71.73;100374.69;4964612;28;20194;-82
2023/01/21 23:47:16;;;;;;;12.02;7.35;;;;;;;0.63;71.81;100356.63;4965468;28;20193;-80
2023/01/21 23:49:41;;;;;;;12.27;7.07;;;;;;;0.61;72.00;100362.69;4968687;28;20272;-80
2023/01/21 23:52:11;;;;;;;9.03;6.73;;;;;;;0.60;72.04;100359.25;4970720;28;20798;-80
2023/01/21 23:54:40;;;;;;;12.07;7.20;;;;;;;0.61;72.18;100354.94;4950518;28;20206;-80
2023/01/21 23:57:06;;;;;;;11.48;7.65;;;;;;;0.62;71.98;100354.06;4975725;28;20198;-82
2023/01/21 23:59:32;;;;;;;9.57;5.50;;;;;;;0.60;71.97;100341.16;4979318;28;20563;-82
